createdAt,value
2022-12-23T00:02:37.195Z,93.94
2022-12-23T00:17:43.261Z,93.43
2022-12-23T00:32:45.386Z,93.72
2022-12-23T00:48:06.807Z,93.03
2022-12-23T01:03:31.030Z,92.58
2022-12-23T01:18:35.193Z,94.75
2022-12-23T01:33:37.474Z,95.57
2022-12-23T01:48:41.975Z,98.93
2022-12-23T02:03:45.769Z,98.60
2022-12-23T02:18:56.508Z,100.00
2022-12-23T02:34:11.119Z,100.00
2022-12-23T02:49:18.507Z,99.37
2022-12-23T03:04:20.415Z,99.97
2022-12-23T03:19:33.764Z,100.00
2022-12-23T03:34:40.393Z,100.00
2022-12-23T03:49:58.290Z,100.00
2022-12-23T04:05:40.313Z,100.00
2022-12-23T07:41:04.913Z,93.35
2022-12-23T07:56:06.996Z,87.30
2022-12-23T08:11:11.178Z,83.36
2022-12-23T08:26:17.456Z,80.81
2022-12-23T08:41:23.751Z,83.59
2022-12-23T08:56:28.207Z,83.00
2022-12-23T09:11:30.382Z,85.95
2022-12-23T09:26:32.798Z,86.66
2022-12-23T09:41:52.921Z,87.46
2022-12-23T09:57:18.863Z,86.66
2022-12-23T10:12:39.518Z,88.26
2022-12-23T10:27:43.999Z,86.46
2022-12-23T10:43:10.686Z,89.11
2022-12-23T10:58:16.385Z,88.77
2022-12-23T11:13:26.029Z,87.66
2022-12-23T11:28:31.851Z,88.54
2022-12-23T11:43:34.847Z,87.15
2022-12-23T11:58:53.639Z,86.85
2022-12-23T12:14:03.975Z,87.12
2022-12-23T12:29:18.191Z,87.89
2022-12-23T12:44:47.383Z,89.19
2022-12-23T13:00:03.625Z,88.87
2022-12-23T16:31:10.136Z,100.00
2022-12-23T16:46:47.035Z,100.00
2022-12-23T17:01:49.694Z,96.70
2022-12-23T17:16:52.001Z,96.82
2022-12-23T17:31:54.725Z,98.42
2022-12-23T17:46:58.345Z,97.69
2022-12-23T18:02:00.213Z,99.04
2022-12-23T18:17:02.362Z,98.79
2022-12-23T18:32:05.900Z,99.07
2022-12-23T18:47:08.475Z,99.64
2022-12-23T19:02:14.407Z,100.00
2022-12-23T19:17:17.679Z,100.00
2022-12-23T19:32:19.704Z,99.91
2022-12-23T19:47:21.701Z,99.17
2022-12-23T20:02:23.746Z,98.04
2022-12-23T20:17:25.868Z,98.70
2022-12-23T20:32:28.085Z,98.63
2022-12-23T20:47:30.049Z,100.00
2022-12-23T21:02:31.883Z,97.54
2022-12-23T21:17:33.898Z,100.00
2022-12-23T21:32:36.396Z,100.00
2022-12-23T21:47:38.211Z,100.00
2022-12-23T22:02:40.105Z,100.00
